createdAt,value
2016-04-17T00:02:43.307Z,2
2016-04-17T00:05:44.941Z,2
2016-04-17T00:08:57.452Z,2
2016-04-17T00:12:10.085Z,2
2016-04-17T00:15:22.733Z,2
2016-04-17T00:18:40.975Z,2
2016-04-17T00:21:42.422Z,2
2016-04-17T00:24:55.041Z,2
2016-04-17T00:28:07.486Z,2
2016-04-17T00:31:19.369Z,2
2016-04-17T00:34:37.831Z,2
2016-04-17T00:37:39.261Z,2
2016-04-17T00:40:51.928Z,2
2016-04-17T00:44:03.795Z,2
2016-04-17T00:47:16.319Z,2
2016-04-17T00:50:28.515Z,2
2016-04-17T00:53:40.617Z,2
2016-04-17T00:56:52.721Z,2
2016-04-17T01:00:04.542Z,2
2016-04-17T01:03:16.627Z,2
2016-04-17T01:06:34.746Z,2
2016-04-17T01:09:42.284Z,2
2016-04-17T01:12:43.621Z,2
2016-04-17T01:15:54.834Z,2
2016-04-17T01:19:07.171Z,2
2016-04-17T01:22:19.616Z,2
2016-04-17T01:25:38.000Z,2
2016-04-17T01:28:39.397Z,2
2016-04-17T01:31:51.799Z,2
2016-04-17T01:35:04.199Z,5
2016-04-17T01:38:16.518Z,5
2016-04-17T01:41:29.027Z,5
2016-04-17T01:44:41.300Z,5
2016-04-17T01:47:53.592Z,5
2016-04-17T01:51:05.788Z,5
2016-04-17T01:54:18.203Z,5
2016-04-17T01:57:36.522Z,5
2016-04-17T02:00:43.953Z,5
2016-04-17T02:03:45.320Z,5
2016-04-17T02:06:57.456Z,5
2016-04-17T02:10:09.902Z,5
2016-04-17T02:13:22.268Z,5
2016-04-17T02:16:40.652Z,5
2016-04-17T02:19:41.925Z,5
2016-04-17T02:22:52.425Z,5
2016-04-17T02:26:04.699Z,5
2016-04-17T02:29:17.019Z,5
2016-04-17T02:32:26.357Z,5
2016-04-17T02:35:44.286Z,5
2016-04-17T02:38:45.716Z,5
2016-04-17T02:41:57.883Z,5
2016-04-17T02:45:10.173Z,5
2016-04-17T02:48:22.524Z,5
2016-04-17T02:51:41.001Z,5
2016-04-17T02:54:42.243Z,5
2016-04-17T02:57:54.660Z,5
2016-04-17T03:01:07.246Z,5
2016-04-17T03:04:19.349Z,5
2016-04-17T03:07:37.529Z,5
2016-04-17T03:10:38.990Z,5
2016-04-17T03:13:51.376Z,5
2016-04-17T03:17:04.586Z,5
2016-04-17T03:20:15.938Z,5
2016-04-17T03:23:25.244Z,5
2016-04-17T03:26:43.580Z,5
2016-04-17T03:29:45.071Z,5
2016-04-17T03:32:57.316Z,5
2016-04-17T03:36:09.544Z,5
2016-04-17T03:39:21.848Z,6
2016-04-17T03:42:40.341Z,7
2016-04-17T03:45:41.771Z,8
2016-04-17T03:48:54.095Z,9
2016-04-17T03:52:05.930Z,10
2016-04-17T03:55:18.455Z,17
2016-04-17T03:58:36.603Z,24
2016-04-17T04:01:44.111Z,28
2016-04-17T04:04:45.463Z,31
2016-04-17T04:07:57.083Z,37
2016-04-17T04:11:08.606Z,45
2016-04-17T04:14:20.834Z,52
2016-04-17T04:17:39.279Z,62
2016-04-17T04:20:40.615Z,65
2016-04-17T04:23:50.998Z,80
2016-04-17T04:27:03.305Z,98
2016-04-17T04:30:15.642Z,108
2016-04-17T04:33:27.978Z,121
2016-04-17T04:36:40.252Z,150
2016-04-17T04:39:52.560Z,207
2016-04-17T04:43:05.162Z,228
2016-04-17T04:46:17.450Z,295
2016-04-17T04:49:35.787Z,258
2016-04-17T04:52:43.279Z,267
2016-04-17T04:55:44.631Z,371
2016-04-17T04:58:54.016Z,313
2016-04-17T05:02:06.150Z,327
2016-04-17T05:05:18.393Z,435
2016-04-17T05:08:28.510Z,569
2016-04-17T05:11:40.705Z,573
2016-04-17T05:14:53.059Z,551
2016-04-17T05:18:05.178Z,723
2016-04-17T05:21:17.388Z,664
2016-04-17T05:24:35.662Z,867
2016-04-17T05:27:43.092Z,876
2016-04-17T05:30:44.491Z,749
2016-04-17T05:33:56.846Z,773
2016-04-17T05:37:09.041Z,780
2016-04-17T05:40:21.330Z,900
2016-04-17T05:43:39.604Z,1030
2016-04-17T05:46:41.018Z,1084
2016-04-17T05:49:53.279Z,1027
2016-04-17T05:53:05.631Z,982
2016-04-17T05:56:18.451Z,1025
2016-04-17T05:59:28.538Z,1056
2016-04-17T06:02:40.187Z,1201
2016-04-17T06:05:49.780Z,1407
2016-04-17T06:09:02.385Z,1322
2016-04-17T06:12:14.577Z,1152
2016-04-17T06:15:26.993Z,1231
2016-04-17T06:18:43.153Z,1363
2016-04-17T06:21:44.512Z,1458
2016-04-17T06:24:56.651Z,1485
2016-04-17T06:28:09.114Z,1661
2016-04-17T06:31:21.575Z,1735
2016-04-17T06:34:39.708Z,2066
2016-04-17T06:37:41.263Z,3243
2016-04-17T06:40:50.960Z,3563
2016-04-17T06:44:03.329Z,3584
2016-04-17T06:47:15.899Z,2744
2016-04-17T06:50:28.454Z,2436
2016-04-17T06:53:40.165Z,1771
2016-04-17T06:56:52.689Z,2904
2016-04-17T07:00:04.559Z,2748
2016-04-17T07:03:17.021Z,2816
2016-04-17T07:06:28.982Z,3406
2016-04-17T07:09:40.958Z,3019
2016-04-17T07:12:53.217Z,3357
2016-04-17T07:16:05.118Z,2545
2016-04-17T07:19:17.689Z,2118
2016-04-17T07:22:29.651Z,2442
2016-04-17T07:25:42.001Z,2163
2016-04-17T07:28:54.167Z,2190
2016-04-17T07:32:06.177Z,2567
2016-04-17T07:35:18.575Z,3594
2016-04-17T07:38:36.256Z,4103
2016-04-17T07:41:43.873Z,3629
2016-04-17T07:44:45.147Z,2511
2016-04-17T07:47:57.282Z,2704
2016-04-17T07:51:09.353Z,4257
2016-04-17T07:54:21.846Z,5370
2016-04-17T07:57:40.275Z,9362
2016-04-17T08:00:42.190Z,12504
2016-04-17T08:03:54.478Z,11202
2016-04-17T08:07:05.036Z,10750
2016-04-17T08:10:17.452Z,10846
2016-04-17T08:13:36.084Z,10912
2016-04-17T08:16:44.093Z,9742
2016-04-17T08:19:46.318Z,650
2016-04-17T08:22:57.032Z,13118
2016-04-17T08:26:09.712Z,13763
2016-04-17T08:29:22.393Z,14943
2016-04-17T08:32:41.306Z,9585
2016-04-17T08:35:43.502Z,1871
2016-04-17T08:38:56.432Z,15640
2016-04-17T08:42:08.881Z,14091
2016-04-17T08:45:21.560Z,8969
2016-04-17T08:48:39.960Z,11731
2016-04-17T08:51:41.765Z,3152
2016-04-17T08:54:54.694Z,6457
2016-04-17T08:58:07.393Z,384
2016-04-17T09:01:20.948Z,384
2016-04-17T09:04:40.564Z,384
2016-04-17T09:07:43.136Z,10620
2016-04-17T09:10:54.737Z,15651
2016-04-17T09:14:07.560Z,12004
2016-04-17T09:17:20.319Z,14109
2016-04-17T09:20:38.983Z,12724
2016-04-17T09:23:40.943Z,9866
2016-04-17T09:26:53.296Z,14375
2016-04-17T09:30:05.870Z,6370
2016-04-17T09:33:18.346Z,6246
2016-04-17T09:36:37.370Z,2443
2016-04-17T09:39:40.362Z,15931
2016-04-17T09:42:53.777Z,384
2016-04-17T09:46:07.210Z,10701
2016-04-17T09:49:19.811Z,8000
2016-04-17T09:52:38.319Z,7868
2016-04-17T09:55:40.171Z,12635
2016-04-17T09:58:52.726Z,13449
2016-04-17T10:02:04.468Z,12961
2016-04-17T10:05:17.698Z,11730
2016-04-17T10:08:29.237Z,9752
2016-04-17T10:11:41.964Z,10279
2016-04-17T10:14:54.566Z,8029
2016-04-17T10:18:07.308Z,9451
2016-04-17T10:21:19.866Z,8468
2016-04-17T10:24:38.187Z,11771
2016-04-17T10:27:40.038Z,10952
2016-04-17T10:30:52.890Z,8975
2016-04-17T10:34:05.789Z,7438
2016-04-17T10:37:18.268Z,8984
2016-04-17T10:40:37.261Z,10558
2016-04-17T10:43:45.331Z,8056
2016-04-17T10:46:47.184Z,7233
2016-04-17T10:49:59.973Z,9407
2016-04-17T10:53:12.436Z,7054
2016-04-17T10:56:24.788Z,9499
2016-04-17T10:59:43.469Z,9768
2016-04-17T11:02:45.242Z,8001
2016-04-17T11:05:57.718Z,7166
2016-04-17T11:09:10.136Z,7112
2016-04-17T11:12:22.956Z,5945
2016-04-17T11:15:41.402Z,5837
2016-04-17T11:18:43.191Z,8399
2016-04-17T11:21:55.841Z,5340
2016-04-17T11:25:08.504Z,5740
2016-04-17T11:28:21.062Z,6728
2016-04-17T11:31:39.976Z,7681
2016-04-17T11:34:41.782Z,7683
2016-04-17T11:37:54.617Z,7282
2016-04-17T11:41:06.578Z,7999
2016-04-17T11:44:19.231Z,6507
2016-04-17T11:47:29.536Z,7919
2016-04-17T11:50:42.293Z,8949
2016-04-17T11:53:54.863Z,6013
2016-04-17T11:57:05.746Z,7040
2016-04-17T12:00:18.524Z,5685
2016-04-17T12:03:37.266Z,5370
2016-04-17T12:06:44.962Z,5805
2016-04-17T12:09:46.875Z,5939
2016-04-17T12:12:57.165Z,5906
2016-04-17T12:16:09.781Z,5341
2016-04-17T12:19:22.480Z,5590
2016-04-17T12:22:40.175Z,5903
2016-04-17T12:25:41.981Z,5760
2016-04-17T12:28:54.708Z,5646
2016-04-17T12:32:07.341Z,6125
2016-04-17T12:35:19.118Z,4357
2016-04-17T12:38:37.626Z,5400
2016-04-17T12:41:45.477Z,5782
2016-04-17T12:44:47.219Z,4686
2016-04-17T12:47:59.868Z,4650
2016-04-17T12:51:12.547Z,4263
2016-04-17T12:54:25.136Z,4259
2016-04-17T12:57:43.738Z,3318
2016-04-17T13:00:45.544Z,6135
2016-04-17T13:03:58.271Z,5908
2016-04-17T13:07:10.825Z,5686
2016-04-17T13:10:23.336Z,5636
2016-04-17T13:13:42.157Z,4379
2016-04-17T13:16:43.775Z,3191
2016-04-17T13:19:56.189Z,4862
2016-04-17T13:23:08.666Z,4088
2016-04-17T13:26:21.332Z,3687
2016-04-17T13:29:39.965Z,4894
2016-04-17T13:32:41.802Z,5565
2016-04-17T13:35:54.341Z,4193
2016-04-17T13:39:06.693Z,4577
2016-04-17T13:42:19.579Z,5851
2016-04-17T13:45:37.853Z,3764
2016-04-17T13:48:45.657Z,3196
2016-04-17T13:51:47.415Z,4968
2016-04-17T13:55:00.158Z,3358
2016-04-17T13:58:12.635Z,3137
2016-04-17T14:01:25.224Z,2446
2016-04-17T14:04:43.699Z,2782
2016-04-17T14:07:45.332Z,3359
2016-04-17T14:10:57.434Z,4217
2016-04-17T14:14:10.209Z,2814
2016-04-17T14:17:22.844Z,3730
2016-04-17T14:20:41.602Z,3861
2016-04-17T14:23:43.267Z,4976
2016-04-17T14:26:55.822Z,4333
2016-04-17T14:30:11.940Z,2599
2016-04-17T14:33:19.138Z,2150
2016-04-17T14:36:37.771Z,2089
2016-04-17T14:39:45.341Z,3320
2016-04-17T14:42:46.943Z,3863
2016-04-17T14:45:59.343Z,3151
2016-04-17T14:49:11.851Z,3123
2016-04-17T14:52:24.251Z,3605
2016-04-17T14:55:42.337Z,2564
2016-04-17T14:58:44.064Z,3660
2016-04-17T15:01:55.825Z,3697
2016-04-17T15:05:08.146Z,3190
2016-04-17T15:08:20.664Z,3281
2016-04-17T15:11:39.263Z,2766
2016-04-17T15:14:41.005Z,2995
2016-04-17T15:17:53.667Z,3582
2016-04-17T15:21:06.340Z,2328
2016-04-17T15:24:18.130Z,2361
2016-04-17T15:27:36.601Z,3407
2016-04-17T15:30:44.424Z,3542
2016-04-17T15:33:46.748Z,2902
2016-04-17T15:36:58.647Z,2611
2016-04-17T15:40:09.578Z,2437
2016-04-17T15:43:21.949Z,2244
2016-04-17T15:46:40.410Z,2095
2016-04-17T15:49:42.121Z,2016
2016-04-17T15:52:54.457Z,1983
2016-04-17T15:56:03.168Z,1939
2016-04-17T15:59:15.567Z,1874
2016-04-17T16:02:28.046Z,1852
2016-04-17T16:05:44.335Z,1647
2016-04-17T16:08:45.828Z,1783
2016-04-17T16:11:58.274Z,1515
2016-04-17T16:15:10.594Z,1473
2016-04-17T16:18:22.902Z,2015
2016-04-17T16:21:41.676Z,1500
2016-04-17T16:24:43.262Z,1572
2016-04-17T16:27:59.051Z,2346
2016-04-17T16:31:08.231Z,1586
2016-04-17T16:34:20.661Z,1693
2016-04-17T16:37:39.250Z,1571
2016-04-17T16:40:40.914Z,1641
2016-04-17T16:43:53.328Z,1559
2016-04-17T16:47:02.914Z,1274
2016-04-17T16:50:15.563Z,1753
2016-04-17T16:53:25.368Z,1548
2016-04-17T16:56:43.941Z,1437
2016-04-17T16:59:45.607Z,1284
2016-04-17T17:02:59.270Z,1307
2016-04-17T17:06:10.434Z,1020
2016-04-17T17:09:22.927Z,877
2016-04-17T17:12:41.484Z,1050
2016-04-17T17:15:43.133Z,1009
2016-04-17T17:18:55.564Z,944
2016-04-17T17:22:08.258Z,915
2016-04-17T17:25:20.017Z,861
2016-04-17T17:28:38.309Z,806
2016-04-17T17:31:45.973Z,758
2016-04-17T17:34:47.404Z,722
2016-04-17T17:37:58.051Z,627
2016-04-17T17:41:10.091Z,565
2016-04-17T17:44:22.536Z,504
2016-04-17T17:47:42.111Z,463
2016-04-17T17:50:44.759Z,431
2016-04-17T17:53:56.923Z,335
2016-04-17T17:57:07.071Z,304
2016-04-17T18:00:18.970Z,237
2016-04-17T18:03:37.356Z,187
2016-04-17T18:06:45.193Z,139
2016-04-17T18:09:46.637Z,99
2016-04-17T18:12:57.583Z,69
2016-04-17T18:16:10.091Z,47
2016-04-17T18:19:22.006Z,32
2016-04-17T18:22:40.330Z,20
2016-04-17T18:25:41.885Z,13
2016-04-17T18:28:54.143Z,9
2016-04-17T18:32:06.196Z,5
2016-04-17T18:35:18.455Z,3
2016-04-17T18:38:36.888Z,2
2016-04-17T18:41:44.286Z,2
2016-04-17T18:44:45.779Z,1
2016-04-17T18:47:57.880Z,1
2016-04-17T18:51:09.811Z,1
2016-04-17T18:54:22.288Z,1
2016-04-17T18:57:39.188Z,1
2016-04-17T19:00:40.479Z,1
2016-04-17T19:03:52.783Z,1
2016-04-17T19:07:05.245Z,2
2016-04-17T19:10:16.971Z,2
2016-04-17T19:13:25.401Z,2
2016-04-17T19:16:40.318Z,2
2016-04-17T19:19:41.764Z,2
2016-04-17T19:22:53.975Z,2
2016-04-17T19:26:06.279Z,2
2016-04-17T19:29:17.897Z,2
2016-04-17T19:32:29.937Z,2
2016-04-17T19:35:42.416Z,2
2016-04-17T19:38:54.424Z,2
2016-04-17T19:42:06.635Z,1
2016-04-17T19:45:18.987Z,2
2016-04-17T19:48:29.995Z,2
2016-04-17T19:51:42.443Z,2
2016-04-17T19:54:54.702Z,1
2016-04-17T19:58:06.710Z,1
2016-04-17T20:01:18.858Z,1
2016-04-17T20:04:37.072Z,1
2016-04-17T20:07:44.221Z,1
2016-04-17T20:10:45.401Z,1
2016-04-17T20:13:58.284Z,1
2016-04-17T20:17:10.641Z,1
2016-04-17T20:20:22.588Z,1
2016-04-17T20:23:40.908Z,1
2016-04-17T20:26:42.056Z,1
2016-04-17T20:29:54.080Z,1
2016-04-17T20:33:06.385Z,1
2016-04-17T20:36:18.768Z,1
2016-04-17T20:39:36.623Z,1
2016-04-17T20:42:43.974Z,1
2016-04-17T20:45:45.310Z,1
2016-04-17T20:48:57.365Z,2
2016-04-17T20:52:09.609Z,1
2016-04-17T20:55:21.803Z,1
2016-04-17T20:58:40.783Z,1
2016-04-17T21:01:41.947Z,1
2016-04-17T21:04:53.971Z,1
2016-04-17T21:08:05.995Z,1
2016-04-17T21:11:17.987Z,2
2016-04-17T21:14:29.964Z,2
2016-04-17T21:17:41.007Z,2
2016-04-17T21:20:53.110Z,2
2016-04-17T21:24:04.992Z,1
2016-04-17T21:27:17.032Z,1
2016-04-17T21:30:29.009Z,2
2016-04-17T21:33:40.941Z,2
2016-04-17T21:36:52.809Z,1
2016-04-17T21:40:04.456Z,1
2016-04-17T21:43:12.855Z,1
2016-04-17T21:46:24.364Z,1
2016-04-17T21:49:42.187Z,1
2016-04-17T21:52:42.991Z,1
2016-04-17T21:55:54.359Z,1
2016-04-17T21:59:05.664Z,1
2016-04-17T22:02:17.345Z,1
2016-04-17T22:05:26.087Z,1
2016-04-17T22:08:43.769Z,1
2016-04-17T22:11:44.636Z,1
2016-04-17T22:14:56.441Z,2
2016-04-17T22:18:07.794Z,2
2016-04-17T22:21:17.691Z,2
2016-04-17T22:24:29.279Z,2
2016-04-17T22:27:46.336Z,1
2016-04-17T22:30:47.188Z,1
2016-04-17T22:33:58.930Z,1
2016-04-17T22:37:10.657Z,2
2016-04-17T22:40:18.946Z,2
2016-04-17T22:43:30.516Z,2
2016-04-17T22:46:42.325Z,2
2016-04-17T22:49:52.879Z,2
2016-04-17T22:53:04.762Z,2
2016-04-17T22:56:15.786Z,1
2016-04-17T22:59:28.106Z,1
2016-04-17T23:02:44.837Z,2
2016-04-17T23:05:45.532Z,2
2016-04-17T23:08:56.681Z,2
2016-04-17T23:12:08.407Z,5
2016-04-17T23:15:20.118Z,5
2016-04-17T23:18:37.955Z,5
2016-04-17T23:21:44.919Z,5
2016-04-17T23:24:45.738Z,5
2016-04-17T23:27:57.529Z,5
2016-04-17T23:31:09.599Z,5
2016-04-17T23:34:19.701Z,5
2016-04-17T23:37:37.552Z,5
2016-04-17T23:40:44.406Z,5
2016-04-17T23:43:45.525Z,5
2016-04-17T23:46:57.016Z,5
2016-04-17T23:50:08.619Z,5
2016-04-17T23:53:20.705Z,5
2016-04-17T23:56:38.369Z,5
2016-04-17T23:59:45.318Z,5
